Main page
METAR-TAF:

METAR-TAF

Airports :

Derry, Northern Ireland

City of Derry Airport

latitude: 55-03N, longitude: 007-09W, elevation: 9 m

Current weather observation

The report was made 6 hours and 21 minutes ago, at 19:50 UTC
Wind 10 kt from the East/Northeast
Temperature 15°C
Humidity 77%
Pressure 1003 hPa
Visibility 10 km or more
Few clouds at a height of 2500 ft
Broken clouds at a height of 3700 ft

METAR: EGAE 281950Z 06010KT 9999 FEW025 BKN037 15/11 Q1003

Time: 03:11 (02:11 UTC)

Forecast

The report was made 9 hours and 7 minutes ago, at 17:04 UTC
Forecast valid from 28 at 18 UTC to 28 at 20 UTC
Wind 12 kt from the East/Northeast
Visibility 10 km or more
Few clouds at a height of 2000 ft
Scattered clouds at a height of 3000 ft

TAF: EGAE 281704Z 2818/2820 06012KT 9999 FEW020 SCT030

Weather observations and forecasts of more than 4000 airports (METAR and TAF reports).

The available stations are represented by yellow and red dots on the map.

Hover mouse over dot to see the name of the station.

Then click to see weather observations and forecasts.

To change the map : click on the green buttons with a black cross to zoom in, on the green button with a dash to zoom out, or on the green arrows for adjacent maps.


METAR-TAF: